sensor_id;sensor_type;location;lat;lon;timestamp;temperature;humidity
24091;DHT22;12272;52.426;17.100;2023-08-31T00:01:02;13.50;99.90
24091;DHT22;12272;52.426;17.100;2023-08-31T00:06:06;13.50;99.90
24091;DHT22;12272;52.426;17.100;2023-08-31T00:11:10;13.50;99.90
24091;DHT22;12272;52.426;17.100;2023-08-31T00:16:13;13.50;99.90
24091;DHT22;12272;52.426;17.100;2023-08-31T00:21:16;13.50;99.90
24091;DHT22;12272;52.426;17.100;2023-08-31T00:26:18;13.50;99.90
24091;DHT22;12272;52.426;17.100;2023-08-31T00:31:23;13.60;99.90
24091;DHT22;12272;52.426;17.100;2023-08-31T00:36:26;13.60;99.90
24091;DHT22;12272;52.426;17.100;2023-08-31T00:41:29;13.50;99.90
24091;DHT22;12272;52.426;17.100;2023-08-31T00:46:32;13.50;99.90
24091;DHT22;12272;52.426;17.100;2023-08-31T00:51:35;13.50;99.90
24091;DHT22;12272;52.426;17.100;2023-08-31T00:56:39;13.50;99.90
24091;DHT22;12272;52.426;17.100;2023-08-31T01:17:36;13.40;99.90
24091;DHT22;12272;52.426;17.100;2023-08-31T01:22:43;13.30;99.90
24091;DHT22;12272;52.426;17.100;2023-08-31T01:27:50;13.40;99.90
24091;DHT22;12272;52.426;17.100;2023-08-31T01:32:53;13.40;99.90
24091;DHT22;12272;52.426;17.100;2023-08-31T01:38:01;13.30;99.90
24091;DHT22;12272;52.426;17.100;2023-08-31T01:43:06;13.30;99.90
24091;DHT22;12272;52.426;17.100;2023-08-31T01:48:09;13.20;99.90
24091;DHT22;12272;52.426;17.100;2023-08-31T01:53:12;13.10;99.90
24091;DHT22;12272;52.426;17.100;2023-08-31T01:58:16;12.90;99.90
24091;DHT22;12272;52.426;17.100;2023-08-31T02:03:19;12.80;99.90
24091;DHT22;12272;52.426;17.100;2023-08-31T02:08:22;12.70;99.90
24091;DHT22;12272;52.426;17.100;2023-08-31T02:13:27;12.70;99.90
24091;DHT22;12272;52.426;17.100;2023-08-31T02:18:30;12.70;99.90
24091;DHT22;12272;52.426;17.100;2023-08-31T02:23:33;12.60;99.90
24091;DHT22;12272;52.426;17.100;2023-08-31T02:28:36;12.60;99.90
24091;DHT22;12272;52.426;17.100;2023-08-31T02:33:39;12.60;99.90
24091;DHT22;12272;52.426;17.100;2023-08-31T02:38:42;12.50;99.90
24091;DHT22;12272;52.426;17.100;2023-08-31T02:43:44;12.60;99.90
24091;DHT22;12272;52.426;17.100;2023-08-31T02:48:47;12.60;99.90
24091;DHT22;12272;52.426;17.100;2023-08-31T02:53:50;12.60;99.90
24091;DHT22;12272;52.426;17.100;2023-08-31T02:58:52;12.50;99.90
24091;DHT22;12272;52.426;17.100;2023-08-31T03:03:55;12.50;99.90
24091;DHT22;12272;52.426;17.100;2023-08-31T03:08:58;12.40;99.90
24091;DHT22;12272;52.426;17.100;2023-08-31T03:19:03;12.20;99.90
24091;DHT22;12272;52.426;17.100;2023-08-31T03:24:06;12.00;99.90
24091;DHT22;12272;52.426;17.100;2023-08-31T03:29:09;12.00;99.90
24091;DHT22;12272;52.426;17.100;2023-08-31T03:34:11;12.00;99.90
24091;DHT22;12272;52.426;17.100;2023-08-31T03:39:14;12.00;99.90
24091;DHT22;12272;52.426;17.100;2023-08-31T03:44:17;12.00;99.90
24091;DHT22;12272;52.426;17.100;2023-08-31T03:49:19;12.00;99.90
24091;DHT22;12272;52.426;17.100;2023-08-31T03:54:22;12.00;99.90
24091;DHT22;12272;52.426;17.100;2023-08-31T03:59:26;12.00;99.90
24091;DHT22;12272;52.426;17.100;2023-08-31T04:04:29;11.90;99.90
24091;DHT22;12272;52.426;17.100;2023-08-31T04:09:31;11.90;99.90
24091;DHT22;12272;52.426;17.100;2023-08-31T04:14:34;11.90;99.90
24091;DHT22;12272;52.426;17.100;2023-08-31T04:19:36;11.90;99.90
24091;DHT22;12272;52.426;17.100;2023-08-31T04:24:40;11.90;99.90
24091;DHT22;12272;52.426;17.100;2023-08-31T04:29:42;11.90;99.90
24091;DHT22;12272;52.426;17.100;2023-08-31T04:34:45;12.00;99.90
24091;DHT22;12272;52.426;17.100;2023-08-31T04:39:48;12.00;99.90
24091;DHT22;12272;52.426;17.100;2023-08-31T04:44:50;12.00;99.90
24091;DHT22;12272;52.426;17.100;2023-08-31T04:49:53;12.20;99.90
24091;DHT22;12272;52.426;17.100;2023-08-31T04:54:55;12.20;99.90
24091;DHT22;12272;52.426;17.100;2023-08-31T04:59:58;12.20;99.90
24091;DHT22;12272;52.426;17.100;2023-08-31T05:05:00;12.30;99.90
24091;DHT22;12272;52.426;17.100;2023-08-31T05:10:03;12.30;99.90
24091;DHT22;12272;52.426;17.100;2023-08-31T05:15:06;12.40;99.90
24091;DHT22;12272;52.426;17.100;2023-08-31T05:20:09;12.40;99.90
24091;DHT22;12272;52.426;17.100;2023-08-31T05:25:12;12.50;99.90
24091;DHT22;12272;52.426;17.100;2023-08-31T05:30:15;12.80;99.90
24091;DHT22;12272;52.426;17.100;2023-08-31T05:35:17;12.90;99.90
24091;DHT22;12272;52.426;17.100;2023-08-31T05:40:21;13.00;99.90
24091;DHT22;12272;52.426;17.100;2023-08-31T05:45:23;13.20;99.90
24091;DHT22;12272;52.426;17.100;2023-08-31T05:50:27;13.40;99.90
24091;DHT22;12272;52.426;17.100;2023-08-31T05:55:29;13.60;99.90
24091;DHT22;12272;52.426;17.100;2023-08-31T06:00:32;13.80;99.90
24091;DHT22;12272;52.426;17.100;2023-08-31T06:05:34;14.00;99.90
24091;DHT22;12272;52.426;17.100;2023-08-31T06:10:37;14.20;99.90
24091;DHT22;12272;52.426;17.100;2023-08-31T06:15:40;14.40;99.90
24091;DHT22;12272;52.426;17.100;2023-08-31T06:20:42;14.50;99.90
24091;DHT22;12272;52.426;17.100;2023-08-31T06:25:45;14.70;99.90
24091;DHT22;12272;52.426;17.100;2023-08-31T06:30:50;14.70;99.90
24091;DHT22;12272;52.426;17.100;2023-08-31T06:35:53;14.90;99.90
24091;DHT22;12272;52.426;17.100;2023-08-31T06:40:56;15.10;99.90
24091;DHT22;12272;52.426;17.100;2023-08-31T06:46:01;15.30;99.90
24091;DHT22;12272;52.426;17.100;2023-08-31T06:51:23;15.50;99.90
24091;DHT22;12272;52.426;17.100;2023-08-31T06:56:26;15.70;99.90
24091;DHT22;12272;52.426;17.100;2023-08-31T07:01:29;15.80;99.90
24091;DHT22;12272;52.426;17.100;2023-08-31T07:06:34;16.00;99.90
24091;DHT22;12272;52.426;17.100;2023-08-31T07:11:37;16.10;99.90
24091;DHT22;12272;52.426;17.100;2023-08-31T07:16:40;16.60;99.90
24091;DHT22;12272;52.426;17.100;2023-08-31T07:21:42;17.00;99.90
24091;DHT22;12272;52.426;17.100;2023-08-31T07:26:45;17.00;99.90
24091;DHT22;12272;52.426;17.100;2023-08-31T07:31:47;17.20;99.90
24091;DHT22;12272;52.426;17.100;2023-08-31T07:36:50;17.40;99.90
24091;DHT22;12272;52.426;17.100;2023-08-31T07:41:54;17.60;99.90
24091;DHT22;12272;52.426;17.100;2023-08-31T07:46:57;17.60;99.90
24091;DHT22;12272;52.426;17.100;2023-08-31T07:51:59;17.60;99.90
24091;DHT22;12272;52.426;17.100;2023-08-31T07:57:02;17.60;99.90
24091;DHT22;12272;52.426;17.100;2023-08-31T08:02:05;17.90;99.90
24091;DHT22;12272;52.426;17.100;2023-08-31T08:07:08;17.90;99.90
24091;DHT22;12272;52.426;17.100;2023-08-31T08:12:11;18.20;99.90
24091;DHT22;12272;52.426;17.100;2023-08-31T08:17:13;18.40;99.90
24091;DHT22;12272;52.426;17.100;2023-08-31T08:22:16;18.40;99.90
24091;DHT22;12272;52.426;17.100;2023-08-31T08:27:18;18.60;99.90
24091;DHT22;12272;52.426;17.100;2023-08-31T08:32:21;18.50;99.90
24091;DHT22;12272;52.426;17.100;2023-08-31T08:37:24;18.60;99.90
24091;DHT22;12272;52.426;17.100;2023-08-31T08:42:30;18.60;99.90
24091;DHT22;12272;52.426;17.100;2023-08-31T08:47:34;18.30;99.90
24091;DHT22;12272;52.426;17.100;2023-08-31T08:52:38;17.60;99.90
24091;DHT22;12272;52.426;17.100;2023-08-31T08:57:41;17.50;99.90
24091;DHT22;12272;52.426;17.100;2023-08-31T09:02:44;17.60;99.90
24091;DHT22;12272;52.426;17.100;2023-08-31T09:08:07;17.50;99.90
24091;DHT22;12272;52.426;17.100;2023-08-31T09:13:14;17.80;99.90
24091;DHT22;12272;52.426;17.100;2023-08-31T09:18:31;17.70;99.90
24091;DHT22;12272;52.426;17.100;2023-08-31T09:23:36;17.60;99.90
24091;DHT22;12272;52.426;17.100;2023-08-31T09:28:40;17.60;99.90
24091;DHT22;12272;52.426;17.100;2023-08-31T09:33:51;17.60;99.90
24091;DHT22;12272;52.426;17.100;2023-08-31T09:38:57;17.80;99.90
24091;DHT22;12272;52.426;17.100;2023-08-31T09:44:17;17.70;99.90
24091;DHT22;12272;52.426;17.100;2023-08-31T09:49:21;17.50;99.90
24091;DHT22;12272;52.426;17.100;2023-08-31T09:54:24;17.60;99.90
24091;DHT22;12272;52.426;17.100;2023-08-31T09:59:28;17.90;99.90
24091;DHT22;12272;52.426;17.100;2023-08-31T10:04:32;18.10;99.90
24091;DHT22;12272;52.426;17.100;2023-08-31T10:09:37;18.10;99.90
24091;DHT22;12272;52.426;17.100;2023-08-31T10:14:40;18.30;99.90
24091;DHT22;12272;52.426;17.100;2023-08-31T10:19:43;18.60;99.90
24091;DHT22;12272;52.426;17.100;2023-08-31T10:24:58;18.70;99.90
24091;DHT22;12272;52.426;17.100;2023-08-31T10:30:25;18.90;99.90
24091;DHT22;12272;52.426;17.100;2023-08-31T10:36:00;18.70;99.60
24091;DHT22;12272;52.426;17.100;2023-08-31T10:41:17;18.40;99.40
24091;DHT22;12272;52.426;17.100;2023-08-31T10:46:31;18.20;99.30
24091;DHT22;12272;52.426;17.100;2023-08-31T10:51:33;18.10;99.90
24091;DHT22;12272;52.426;17.100;2023-08-31T11:01:59;18.40;99.90
24091;DHT22;12272;52.426;17.100;2023-08-31T11:07:25;18.60;99.90
24091;DHT22;12272;52.426;17.100;2023-08-31T11:12:28;18.90;99.20
24091;DHT22;12272;52.426;17.100;2023-08-31T11:17:34;18.90;96.90
24091;DHT22;12272;52.426;17.100;2023-08-31T11:22:45;19.00;95.90
24091;DHT22;12272;52.426;17.100;2023-08-31T11:27:58;19.40;95.30
24091;DHT22;12272;52.426;17.100;2023-08-31T11:33:06;19.40;95.70
24091;DHT22;12272;52.426;17.100;2023-08-31T11:38:09;19.40;95.80
24091;DHT22;12272;52.426;17.100;2023-08-31T11:43:15;19.30;94.70
24091;DHT22;12272;52.426;17.100;2023-08-31T11:48:18;19.30;97.50
24091;DHT22;12272;52.426;17.100;2023-08-31T11:53:20;19.80;94.70
24091;DHT22;12272;52.426;17.100;2023-08-31T11:58:26;19.80;93.90
24091;DHT22;12272;52.426;17.100;2023-08-31T12:03:42;20.10;96.00
24091;DHT22;12272;52.426;17.100;2023-08-31T12:08:54;20.50;95.20
24091;DHT22;12272;52.426;17.100;2023-08-31T12:14:00;20.60;90.00
24091;DHT22;12272;52.426;17.100;2023-08-31T12:19:04;20.30;89.90
24091;DHT22;12272;52.426;17.100;2023-08-31T12:24:06;20.00;91.60
24091;DHT22;12272;52.426;17.100;2023-08-31T12:29:09;19.70;91.50
24091;DHT22;12272;52.426;17.100;2023-08-31T12:34:12;19.60;94.70
24091;DHT22;12272;52.426;17.100;2023-08-31T12:39:14;19.00;95.50
24091;DHT22;12272;52.426;17.100;2023-08-31T12:44:17;18.30;99.00
24091;DHT22;12272;52.426;17.100;2023-08-31T12:49:20;18.10;99.80
24091;DHT22;12272;52.426;17.100;2023-08-31T12:54:23;17.60;99.50
24091;DHT22;12272;52.426;17.100;2023-08-31T12:59:26;17.30;99.70
24091;DHT22;12272;52.426;17.100;2023-08-31T13:04:28;17.20;99.90
24091;DHT22;12272;52.426;17.100;2023-08-31T13:09:31;17.50;99.90
24091;DHT22;12272;52.426;17.100;2023-08-31T13:14:35;18.10;99.90
24091;DHT22;12272;52.426;17.100;2023-08-31T13:19:38;18.50;99.90
24091;DHT22;12272;52.426;17.100;2023-08-31T13:24:40;18.80;99.90
24091;DHT22;12272;52.426;17.100;2023-08-31T13:29:43;18.70;98.20
24091;DHT22;12272;52.426;17.100;2023-08-31T13:34:46;18.60;98.90
24091;DHT22;12272;52.426;17.100;2023-08-31T13:39:50;18.80;98.90
24091;DHT22;12272;52.426;17.100;2023-08-31T13:44:54;19.00;97.20
24091;DHT22;12272;52.426;17.100;2023-08-31T13:49:57;19.10;97.30
24091;DHT22;12272;52.426;17.100;2023-08-31T13:54:59;19.20;99.10
24091;DHT22;12272;52.426;17.100;2023-08-31T14:00:02;19.10;97.80
24091;DHT22;12272;52.426;17.100;2023-08-31T14:05:10;19.00;97.40
24091;DHT22;12272;52.426;17.100;2023-08-31T14:10:13;19.10;97.20
24091;DHT22;12272;52.426;17.100;2023-08-31T14:15:16;18.90;97.80
24091;DHT22;12272;52.426;17.100;2023-08-31T14:20:19;18.50;97.70
24091;DHT22;12272;52.426;17.100;2023-08-31T14:25:21;18.30;98.60
24091;DHT22;12272;52.426;17.100;2023-08-31T14:30:27;18.40;98.80
24091;DHT22;12272;52.426;17.100;2023-08-31T14:35:30;19.00;99.90
24091;DHT22;12272;52.426;17.100;2023-08-31T14:40:33;19.00;96.70
24091;DHT22;12272;52.426;17.100;2023-08-31T14:45:37;19.20;97.10
24091;DHT22;12272;52.426;17.100;2023-08-31T14:50:42;19.30;96.40
24091;DHT22;12272;52.426;17.100;2023-08-31T14:55:51;19.70;96.60
24091;DHT22;12272;52.426;17.100;2023-08-31T15:00:57;20.00;96.90
24091;DHT22;12272;52.426;17.100;2023-08-31T15:06:00;19.90;95.20
24091;DHT22;12272;52.426;17.100;2023-08-31T15:11:03;19.90;91.10
24091;DHT22;12272;52.426;17.100;2023-08-31T15:16:06;19.70;83.30
24091;DHT22;12272;52.426;17.100;2023-08-31T15:21:08;19.40;75.80
24091;DHT22;12272;52.426;17.100;2023-08-31T15:26:11;19.20;71.80
24091;DHT22;12272;52.426;17.100;2023-08-31T15:31:15;19.10;72.70
24091;DHT22;12272;52.426;17.100;2023-08-31T15:36:18;19.10;76.70
24091;DHT22;12272;52.426;17.100;2023-08-31T15:41:21;19.10;78.90
24091;DHT22;12272;52.426;17.100;2023-08-31T15:46:23;19.00;77.40
24091;DHT22;12272;52.426;17.100;2023-08-31T15:51:26;19.20;81.10
24091;DHT22;12272;52.426;17.100;2023-08-31T15:56:32;19.00;83.70
24091;DHT22;12272;52.426;17.100;2023-08-31T16:01:35;19.00;82.90
24091;DHT22;12272;52.426;17.100;2023-08-31T16:06:38;18.90;85.20
24091;DHT22;12272;52.426;17.100;2023-08-31T16:11:41;19.00;87.40
24091;DHT22;12272;52.426;17.100;2023-08-31T16:16:44;19.00;89.30
24091;DHT22;12272;52.426;17.100;2023-08-31T16:21:46;19.00;86.70
24091;DHT22;12272;52.426;17.100;2023-08-31T16:26:49;18.80;88.40
24091;DHT22;12272;52.426;17.100;2023-08-31T16:31:52;18.70;90.20
24091;DHT22;12272;52.426;17.100;2023-08-31T16:36:55;18.70;91.80
24091;DHT22;12272;52.426;17.100;2023-08-31T16:41:57;18.50;89.10
24091;DHT22;12272;52.426;17.100;2023-08-31T16:47:00;18.40;88.90
24091;DHT22;12272;52.426;17.100;2023-08-31T16:52:03;18.40;87.20
24091;DHT22;12272;52.426;17.100;2023-08-31T16:57:06;18.30;82.70
24091;DHT22;12272;52.426;17.100;2023-08-31T17:02:08;19.00;81.30
24091;DHT22;12272;52.426;17.100;2023-08-31T17:07:11;18.70;76.30
24091;DHT22;12272;52.426;17.100;2023-08-31T17:12:15;18.30;79.00
24091;DHT22;12272;52.426;17.100;2023-08-31T17:17:18;18.00;81.40
24091;DHT22;12272;52.426;17.100;2023-08-31T17:22:24;17.50;87.50
24091;DHT22;12272;52.426;17.100;2023-08-31T17:27:28;17.30;90.40
24091;DHT22;12272;52.426;17.100;2023-08-31T17:32:31;17.00;91.70
24091;DHT22;12272;52.426;17.100;2023-08-31T17:37:34;16.60;93.80
24091;DHT22;12272;52.426;17.100;2023-08-31T17:42:37;16.20;96.30
24091;DHT22;12272;52.426;17.100;2023-08-31T17:47:39;15.80;99.10
24091;DHT22;12272;52.426;17.100;2023-08-31T17:52:42;15.60;99.90
24091;DHT22;12272;52.426;17.100;2023-08-31T17:57:45;15.60;99.90
24091;DHT22;12272;52.426;17.100;2023-08-31T18:02:47;15.40;99.90
24091;DHT22;12272;52.426;17.100;2023-08-31T18:07:55;15.00;99.90
24091;DHT22;12272;52.426;17.100;2023-08-31T18:12:57;14.80;99.90
24091;DHT22;12272;52.426;17.100;2023-08-31T18:18:00;14.60;99.90
24091;DHT22;12272;52.426;17.100;2023-08-31T18:23:03;14.40;99.90
24091;DHT22;12272;52.426;17.100;2023-08-31T18:28:06;14.20;99.90
24091;DHT22;12272;52.426;17.100;2023-08-31T18:33:11;14.00;99.90
24091;DHT22;12272;52.426;17.100;2023-08-31T18:38:20;13.70;99.90
24091;DHT22;12272;52.426;17.100;2023-08-31T18:43:24;13.50;99.90
24091;DHT22;12272;52.426;17.100;2023-08-31T18:48:26;13.30;99.90
24091;DHT22;12272;52.426;17.100;2023-08-31T18:53:32;13.30;99.90
24091;DHT22;12272;52.426;17.100;2023-08-31T18:58:35;13.30;99.90
24091;DHT22;12272;52.426;17.100;2023-08-31T19:03:37;13.20;99.90
24091;DHT22;12272;52.426;17.100;2023-08-31T19:08:40;13.10;99.90
24091;DHT22;12272;52.426;17.100;2023-08-31T19:13:43;12.90;99.90
24091;DHT22;12272;52.426;17.100;2023-08-31T19:18:47;12.70;99.90
24091;DHT22;12272;52.426;17.100;2023-08-31T19:23:53;12.60;99.90
24091;DHT22;12272;52.426;17.100;2023-08-31T19:33:59;12.50;99.90
24091;DHT22;12272;52.426;17.100;2023-08-31T19:39:01;12.30;99.90
24091;DHT22;12272;52.426;17.100;2023-08-31T19:44:04;12.10;99.90
24091;DHT22;12272;52.426;17.100;2023-08-31T19:49:07;12.10;99.90
24091;DHT22;12272;52.426;17.100;2023-08-31T19:54:09;12.00;99.90
24091;DHT22;12272;52.426;17.100;2023-08-31T19:59:13;11.90;99.90
24091;DHT22;12272;52.426;17.100;2023-08-31T20:11:25;11.70;99.90
24091;DHT22;12272;52.426;17.100;2023-08-31T20:16:28;11.80;99.90
24091;DHT22;12272;52.426;17.100;2023-08-31T20:21:32;11.80;99.90
24091;DHT22;12272;52.426;17.100;2023-08-31T20:26:35;11.70;99.90
24091;DHT22;12272;52.426;17.100;2023-08-31T20:31:38;11.70;99.90
24091;DHT22;12272;52.426;17.100;2023-08-31T20:41:43;11.50;99.90
24091;DHT22;12272;52.426;17.100;2023-08-31T20:46:47;11.50;99.90
24091;DHT22;12272;52.426;17.100;2023-08-31T20:51:50;11.60;99.90
24091;DHT22;12272;52.426;17.100;2023-08-31T20:56:53;11.50;99.90
24091;DHT22;12272;52.426;17.100;2023-08-31T21:01:56;11.40;99.90
24091;DHT22;12272;52.426;17.100;2023-08-31T21:06:59;11.30;99.90
24091;DHT22;12272;52.426;17.100;2023-08-31T21:12:01;11.20;99.90
24091;DHT22;12272;52.426;17.100;2023-08-31T21:17:05;11.20;99.90
24091;DHT22;12272;52.426;17.100;2023-08-31T21:22:07;11.20;99.90
24091;DHT22;12272;52.426;17.100;2023-08-31T21:27:10;11.40;99.90
24091;DHT22;12272;52.426;17.100;2023-08-31T21:32:12;11.50;99.90
24091;DHT22;12272;52.426;17.100;2023-08-31T21:37:15;11.40;99.90
24091;DHT22;12272;52.426;17.100;2023-08-31T21:42:18;11.50;99.90
24091;DHT22;12272;52.426;17.100;2023-08-31T21:47:20;11.40;99.90
24091;DHT22;12272;52.426;17.100;2023-08-31T21:52:23;11.40;99.90
24091;DHT22;12272;52.426;17.100;2023-08-31T21:57:25;11.40;99.90
24091;DHT22;12272;52.426;17.100;2023-08-31T22:02:28;11.40;99.90
24091;DHT22;12272;52.426;17.100;2023-08-31T22:07:31;11.40;99.90
24091;DHT22;12272;52.426;17.100;2023-08-31T22:12:34;11.50;99.90
24091;DHT22;12272;52.426;17.100;2023-08-31T22:17:37;11.70;99.90
24091;DHT22;12272;52.426;17.100;2023-08-31T22:22:41;11.80;99.90
24091;DHT22;12272;52.426;17.100;2023-08-31T22:27:43;12.00;99.90
24091;DHT22;12272;52.426;17.100;2023-08-31T22:32:46;12.20;99.90
24091;DHT22;12272;52.426;17.100;2023-08-31T22:37:49;12.30;99.90
24091;DHT22;12272;52.426;17.100;2023-08-31T22:42:51;12.30;99.90
24091;DHT22;12272;52.426;17.100;2023-08-31T22:47:54;12.20;99.90
24091;DHT22;12272;52.426;17.100;2023-08-31T22:52:56;12.30;99.90
24091;DHT22;12272;52.426;17.100;2023-08-31T22:57:59;12.40;99.90
24091;DHT22;12272;52.426;17.100;2023-08-31T23:03:01;12.40;99.90
24091;DHT22;12272;52.426;17.100;2023-08-31T23:08:04;12.50;99.90
24091;DHT22;12272;52.426;17.100;2023-08-31T23:13:07;12.60;99.90
24091;DHT22;12272;52.426;17.100;2023-08-31T23:18:10;12.80;99.90
24091;DHT22;12272;52.426;17.100;2023-08-31T23:23:13;12.80;99.90
24091;DHT22;12272;52.426;17.100;2023-08-31T23:28:15;12.90;99.90
24091;DHT22;12272;52.426;17.100;2023-08-31T23:33:18;12.90;99.90
24091;DHT22;12272;52.426;17.100;2023-08-31T23:38:21;13.00;99.90
24091;DHT22;12272;52.426;17.100;2023-08-31T23:43:24;13.30;99.90
24091;DHT22;12272;52.426;17.100;2023-08-31T23:48:27;13.20;99.90
24091;DHT22;12272;52.426;17.100;2023-08-31T23:53:30;13.20;99.90
24091;DHT22;12272;52.426;17.100;2023-08-31T23:58:33;13.20;99.90
